Time;durP1;ratioP1;P1;durP2;ratioP2;P2;SDS_P1;SDS_P2;PMS_P1;PMS_P2;Temp;Humidity;BMP_temperature;BMP_pressure;BME280_temperature;BME280_humidity;BME280_pressure;Samples;Min_cycle;Max_cycle;Signal;HPM_P1;HPM_P2
2022/05/30 00:00:44;;;;;;;4.03;0.47;;;13.90;99.90;;;;;;5030968;28;20116;-69
2022/05/30 00:03:12;;;;;;;1.48;0.20;;;13.60;99.90;;;;;;5017962;28;20034;-69
2022/05/30 00:05:48;;;;;;;1.58;0.50;;;13.70;99.90;;;;;;5019613;28;20021;-69
2022/05/30 00:08:17;;;;;;;1.35;0.20;;;13.90;99.90;;;;;;5021335;28;20030;-69
2022/05/30 00:10:45;;;;;;;3.75;0.40;;;13.80;99.90;;;;;;5019175;28;20028;-69
2022/05/30 00:13:12;;;;;;;0.45;0.17;;;13.90;99.90;;;;;;5027517;28;20026;-70
2022/05/30 00:15:40;;;;;;;2.63;0.60;;;13.80;99.90;;;;;;5027173;28;20028;-69
2022/05/30 00:18:12;;;;;;;1.30;0.40;;;13.80;99.90;;;;;;5022602;28;20516;-69
2022/05/30 00:20:45;;;;;;;1.67;0.25;;;13.90;99.90;;;;;;5027866;28;20071;-69
2022/05/30 00:23:12;;;;;;;1.08;0.22;;;14.00;99.90;;;;;;5028263;28;20102;-69
2022/05/30 00:25:43;;;;;;;0.98;0.17;;;14.00;99.90;;;;;;5020514;28;20022;-69
2022/05/30 00:28:11;;;;;;;1.73;0.40;;;14.00;99.90;;;;;;5022948;28;20040;-69
2022/05/30 00:30:38;;;;;;;2.03;0.45;;;14.00;99.90;;;;;;5021706;28;20335;-68
2022/05/30 00:33:06;;;;;;;0.80;0.20;;;14.00;99.90;;;;;;5017870;28;20040;-69
2022/05/30 00:35:33;;;;;;;1.15;0.10;;;14.00;99.90;;;;;;5023009;28;20014;-69
2022/05/30 00:38:00;;;;;;;1.40;0.40;;;14.00;99.90;;;;;;5017372;28;20044;-68
2022/05/30 00:40:27;;;;;;;1.02;0.30;;;14.10;99.90;;;;;;5027891;28;20033;-68
2022/05/30 00:42:55;;;;;;;1.48;0.20;;;14.10;99.90;;;;;;5014145;28;20029;-68
2022/05/30 00:45:22;;;;;;;0.70;0.20;;;14.10;99.90;;;;;;5027560;28;20466;-68
2022/05/30 00:47:50;;;;;;;0.90;0.30;;;14.10;99.90;;;;;;5017370;28;20387;-68
2022/05/30 00:50:19;;;;;;;1.15;0.30;;;14.20;99.90;;;;;;5017570;28;20079;-68
2022/05/30 00:52:46;;;;;;;1.15;0.10;;;14.10;99.90;;;;;;5019438;28;20129;-68
2022/05/30 00:55:19;;;;;;;4.10;0.50;;;14.10;99.90;;;;;;5024892;28;20053;-68
2022/05/30 00:57:48;;;;;;;2.72;0.43;;;14.00;99.90;;;;;;5017987;28;20041;-68
2022/05/30 01:00:25;;;;;;;1.67;0.40;;;13.90;99.90;;;;;;5029841;28;20050;-68
2022/05/30 01:08:29;;;;;;;1.02;0.25;;;13.80;99.90;;;;;;5018688;28;20147;-68
2022/05/30 01:10:57;;;;;;;0.68;0.20;;;13.70;99.90;;;;;;5025855;28;20026;-69
2022/05/30 01:13:27;;;;;;;3.80;0.60;;;13.80;99.90;;;;;;5016475;28;20040;-68
2022/05/30 01:15:56;;;;;;;1.20;0.50;;;13.80;99.90;;;;;;5025477;28;20023;-68
2022/05/30 01:18:34;;;;;;;2.00;0.20;;;13.80;99.90;;;;;;5027160;28;20044;-68
2022/05/30 01:21:22;;;;;;;2.22;0.25;;;13.80;99.90;;;;;;5018095;28;20026;-67
2022/05/30 01:24:14;;;;;;;1.90;0.30;;;13.70;99.90;;;;;;5017151;28;20889;-68
2022/05/30 01:26:55;;;;;;;0.65;0.30;;;13.60;99.90;;;;;;5020605;28;20108;-68
2022/05/30 01:29:33;;;;;;;1.85;0.60;;;13.60;99.90;;;;;;5020319;28;20442;-67
2022/05/30 01:32:00;;;;;;;1.35;0.47;;;13.60;99.90;;;;;;5019952;28;21063;-68
2022/05/30 01:34:28;;;;;;;10.18;0.75;;;13.50;99.90;;;;;;5022286;28;20108;-66
2022/05/30 01:36:56;;;;;;;3.47;0.50;;;13.50;99.90;;;;;;5030735;28;20124;-67
2022/05/30 01:39:23;;;;;;;1.83;0.43;;;13.50;99.90;;;;;;5032502;28;20061;-68
2022/05/30 01:41:50;;;;;;;2.85;0.43;;;13.40;99.90;;;;;;5019709;28;20029;-68
2022/05/30 01:44:18;;;;;;;2.78;0.30;;;13.40;99.90;;;;;;5022644;28;20052;-67
2022/05/30 01:46:45;;;;;;;1.23;0.20;;;13.40;99.90;;;;;;5022821;28;20108;-67
2022/05/30 01:49:12;;;;;;;3.22;0.20;;;13.40;99.90;;;;;;5028421;28;20025;-68
2022/05/30 01:51:40;;;;;;;0.93;0.43;;;13.40;99.90;;;;;;5023243;28;20104;-68
2022/05/30 01:54:07;;;;;;;1.10;0.40;;;13.40;99.90;;;;;;5015085;28;20064;-67
2022/05/30 01:56:34;;;;;;;0.98;0.30;;;13.40;99.90;;;;;;5021611;28;20018;-68
2022/05/30 01:59:02;;;;;;;0.85;0.20;;;13.40;99.90;;;;;;5030407;28;20079;-68
2022/05/30 02:01:30;;;;;;;2.88;0.20;;;13.40;99.90;;;;;;5018110;28;20017;-67
2022/05/30 02:03:57;;;;;;;0.50;0.20;;;13.40;99.90;;;;;;5032285;28;20029;-68
2022/05/30 02:06:28;;;;;;;2.17;0.45;;;13.60;99.90;;;;;;5026107;28;20072;-67
2022/05/30 02:08:56;;;;;;;3.40;0.55;;;14.00;99.90;;;;;;5029823;28;20437;-67
2022/05/30 02:11:24;;;;;;;1.13;0.30;;;15.00;99.90;;;;;;5029745;28;20040;-67
2022/05/30 02:13:51;;;;;;;3.17;0.40;;;15.90;99.90;;;;;;5017737;28;20025;-67
2022/05/30 02:19:06;;;;;;;0.40;0.20;;;16.90;99.90;;;;;;5026709;28;20049;-68
2022/05/30 02:21:34;;;;;;;2.67;0.20;;;16.80;99.90;;;;;;5019815;28;20025;-68
2022/05/30 02:24:03;;;;;;;1.05;0.25;;;16.00;99.90;;;;;;5029430;28;20041;-68
2022/05/30 02:26:31;;;;;;;0.73;0.30;;;15.60;99.90;;;;;;5012119;28;20450;-68
2022/05/30 02:28:58;;;;;;;1.10;0.30;;;15.20;99.90;;;;;;5024799;28;20068;-67
2022/05/30 02:31:27;;;;;;;2.25;0.50;;;15.10;99.90;;;;;;5023982;28;20057;-66
2022/05/30 02:36:40;;;;;;;3.17;0.40;;;16.00;99.90;;;;;;5024562;28;20044;-67
2022/05/30 02:39:16;;;;;;;0.52;0.22;;;16.30;99.90;;;;;;5027043;28;20052;-68
2022/05/30 02:41:47;;;;;;;0.60;0.15;;;16.00;99.90;;;;;;5026551;28;20087;-68
2022/05/30 02:44:19;;;;;;;0.57;0.20;;;15.60;99.90;;;;;;5027845;28;20033;-68
2022/05/30 02:46:48;;;;;;;1.52;0.65;;;15.40;99.90;;;;;;5022815;28;20040;-67
2022/05/30 02:49:15;;;;;;;0.35;0.10;;;15.30;99.90;;;;;;5021125;28;20025;-67
2022/05/30 02:51:44;;;;;;;0.68;0.28;;;15.10;99.90;;;;;;5023231;28;20022;-67
2022/05/30 02:54:12;;;;;;;1.00;0.30;;;15.00;99.90;;;;;;5034503;28;20032;-67
2022/05/30 02:56:40;;;;;;;0.45;0.20;;;14.90;99.90;;;;;;5029068;28;20018;-68
2022/05/30 02:59:08;;;;;;;3.05;0.22;;;14.70;99.90;;;;;;5024260;28;20087;-68
2022/05/30 03:01:36;;;;;;;0.93;0.20;;;14.60;99.90;;;;;;5024806;28;20113;-68
2022/05/30 03:04:06;;;;;;;0.98;0.20;;;14.60;99.90;;;;;;5023327;28;20385;-69
2022/05/30 03:06:35;;;;;;;2.55;0.45;;;14.60;99.90;;;;;;5028052;28;20037;-68
2022/05/30 03:09:05;;;;;;;3.22;0.50;;;14.70;99.90;;;;;;5032852;28;20029;-69
2022/05/30 03:11:33;;;;;;;0.52;0.20;;;14.60;99.90;;;;;;5028990;28;20496;-68
2022/05/30 03:14:00;;;;;;;1.27;0.28;;;14.60;99.90;;;;;;5019976;28;20449;-68
2022/05/30 03:16:28;;;;;;;1.95;0.32;;;14.70;99.90;;;;;;5027682;28;20120;-68
2022/05/30 03:18:55;;;;;;;5.15;0.52;;;14.70;99.90;;;;;;5016813;28;20036;-68
2022/05/30 03:21:22;;;;;;;1.00;0.32;;;14.70;99.90;;;;;;5021089;28;20100;-68
2022/05/30 03:23:52;;;;;;;3.00;0.40;;;14.80;99.90;;;;;;5019016;28;20029;-68
2022/05/30 03:26:19;;;;;;;2.28;0.52;;;14.80;99.90;;;;;;5024846;28;20020;-68
2022/05/30 03:28:46;;;;;;;1.98;0.20;;;14.80;99.90;;;;;;5022933;28;20044;-68
2022/05/30 03:31:14;;;;;;;2.25;0.73;;;15.40;99.90;;;;;;5021416;28;20029;-68
2022/05/30 03:33:41;;;;;;;2.30;0.30;;;16.30;99.90;;;;;;5026039;28;20107;-68
2022/05/30 03:36:30;;;;;;;2.30;0.43;;;16.20;99.90;;;;;;5024634;28;20021;-68
2022/05/30 03:38:57;;;;;;;2.03;0.80;;;15.70;99.90;;;;;;5023074;28;20029;-68
2022/05/30 03:41:24;;;;;;;3.28;0.30;;;15.30;99.90;;;;;;5025550;28;20086;-68
2022/05/30 03:43:51;;;;;;;2.85;0.50;;;15.30;99.90;;;;;;5025211;28;20040;-69
2022/05/30 03:46:19;;;;;;;4.22;0.50;;;15.40;99.90;;;;;;5021198;28;20665;-69
2022/05/30 03:48:46;;;;;;;5.45;0.60;;;15.50;99.90;;;;;;5022961;28;20025;-69
2022/05/30 03:51:14;;;;;;;1.80;0.45;;;15.50;99.90;;;;;;5020173;28;20099;-69
2022/05/30 03:53:42;;;;;;;6.07;0.57;;;15.40;99.90;;;;;;5030830;28;20041;-69
2022/05/30 03:56:11;;;;;;;1.33;0.50;;;15.30;99.90;;;;;;5026507;28;20469;-67
2022/05/30 03:58:39;;;;;;;3.75;0.38;;;15.20;99.90;;;;;;5028555;28;20571;-67
2022/05/30 04:01:08;;;;;;;6.47;0.65;;;15.20;99.90;;;;;;5025203;28;20052;-69
2022/05/30 04:03:36;;;;;;;6.03;0.75;;;15.20;99.90;;;;;;5026269;28;20025;-67
2022/05/30 04:06:04;;;;;;;3.70;0.60;;;15.20;99.90;;;;;;5029974;28;20572;-68
2022/05/30 04:08:32;;;;;;;1.95;0.57;;;15.30;99.90;;;;;;5018942;28;20371;-68
2022/05/30 04:11:00;;;;;;;2.22;0.63;;;15.30;99.90;;;;;;5023093;28;20029;-68
2022/05/30 04:13:27;;;;;;;4.00;0.75;;;15.30;99.90;;;;;;5015471;28;20109;-68
2022/05/30 04:15:54;;;;;;;0.98;0.30;;;15.30;99.90;;;;;;5013396;28;20028;-68
2022/05/30 04:18:21;;;;;;;2.13;0.57;;;15.30;99.90;;;;;;5034422;28;20088;-68
2022/05/30 04:20:49;;;;;;;1.73;0.77;;;15.30;99.90;;;;;;5024622;28;20505;-68
2022/05/30 04:23:16;;;;;;;5.25;0.85;;;15.30;99.90;;;;;;5014941;28;20022;-67
2022/05/30 04:25:43;;;;;;;2.05;0.60;;;15.40;99.90;;;;;;5017985;28;20018;-67
2022/05/30 04:28:10;;;;;;;2.47;0.80;;;15.40;99.90;;;;;;5028142;28;20033;-68
2022/05/30 04:30:38;;;;;;;4.00;0.98;;;15.40;99.90;;;;;;5023853;28;20576;-67
2022/05/30 04:33:05;;;;;;;2.10;0.57;;;15.30;99.90;;;;;;5014963;28;20576;-68
2022/05/30 04:35:33;;;;;;;2.20;0.40;;;15.30;99.90;;;;;;5014264;28;20192;-67
2022/05/30 04:38:00;;;;;;;3.17;1.00;;;15.30;99.90;;;;;;5020025;28;20394;-68
2022/05/30 04:40:27;;;;;;;1.65;0.50;;;15.30;99.90;;;;;;5020343;28;20121;-68
2022/05/30 04:42:57;;;;;;;1.95;0.85;;;15.30;99.90;;;;;;5031280;28;20547;-69
2022/05/30 04:45:24;;;;;;;1.25;0.50;;;15.30;99.90;;;;;;5022102;28;20055;-68
2022/05/30 04:47:51;;;;;;;2.97;0.70;;;15.20;99.90;;;;;;5023954;28;20083;-68
2022/05/30 04:50:19;;;;;;;2.42;0.32;;;15.20;99.90;;;;;;5021994;28;20037;-67
2022/05/30 04:52:47;;;;;;;4.60;0.73;;;15.20;99.90;;;;;;5014581;28;20054;-68
2022/05/30 04:55:18;;;;;;;2.55;0.38;;;15.20;99.90;;;;;;5027175;28;20034;-67
2022/05/30 04:57:47;;;;;;;1.83;0.52;;;15.10;99.90;;;;;;5029227;28;20030;-67
2022/05/30 05:00:17;;;;;;;1.23;0.50;;;15.00;99.90;;;;;;5033546;28;20060;-67
2022/05/30 05:02:45;;;;;;;2.10;0.40;;;15.00;99.90;;;;;;5025728;28;20116;-69
2022/05/30 05:05:13;;;;;;;0.88;0.50;;;14.90;99.90;;;;;;5014551;28;20057;-69
2022/05/30 05:08:00;;;;;;;1.70;0.60;;;14.90;99.90;;;;;;5025476;28;20104;-68
2022/05/30 05:10:42;;;;;;;2.85;0.60;;;14.90;99.90;;;;;;5033546;28;20030;-68
2022/05/30 05:13:09;;;;;;;1.88;0.45;;;14.80;99.90;;;;;;5015479;28;20330;-66
2022/05/30 05:15:37;;;;;;;2.05;0.60;;;14.80;99.90;;;;;;5012495;28;20026;-68
2022/05/30 05:18:04;;;;;;;2.45;1.23;;;14.90;99.90;;;;;;5013890;28;20030;-68
2022/05/30 05:20:40;;;;;;;3.38;0.50;;;14.90;99.90;;;;;;5020682;28;20036;-69
2022/05/30 05:23:07;;;;;;;8.73;2.90;;;14.80;99.90;;;;;;5019415;28;20022;-68
2022/05/30 05:25:38;;;;;;;4.55;2.55;;;14.70;99.90;;;;;;5016264;28;20025;-69
2022/05/30 05:28:07;;;;;;;4.72;1.55;;;14.60;99.90;;;;;;5022204;28;20654;-68
2022/05/30 05:30:35;;;;;;;4.95;2.72;;;14.50;99.90;;;;;;5025580;28;20382;-69
2022/05/30 05:33:02;;;;;;;2.60;0.70;;;14.50;99.90;;;;;;5023874;28;20446;-69
2022/05/30 05:35:29;;;;;;;3.97;0.65;;;14.40;99.90;;;;;;5024100;28;20104;-69
2022/05/30 05:37:57;;;;;;;1.95;0.85;;;14.40;99.90;;;;;;5021971;28;20076;-69
2022/05/30 05:40:24;;;;;;;2.25;0.77;;;14.40;99.90;;;;;;5015380;28;20018;-69
2022/05/30 05:42:51;;;;;;;5.80;1.67;;;14.30;99.90;;;;;;5019597;28;20021;-68
2022/05/30 05:45:19;;;;;;;2.55;0.88;;;14.30;99.90;;;;;;5014846;28;20108;-68
2022/05/30 05:47:47;;;;;;;2.00;0.60;;;14.30;99.90;;;;;;5023945;28;20397;-68
2022/05/30 05:50:16;;;;;;;4.50;0.70;;;14.20;99.90;;;;;;5021321;28;20504;-68
2022/05/30 05:52:43;;;;;;;2.42;0.70;;;14.20;99.90;;;;;;5030360;28;20087;-68
2022/05/30 05:55:10;;;;;;;2.25;0.70;;;14.20;99.90;;;;;;5014257;28;20018;-68
2022/05/30 05:57:38;;;;;;;2.63;0.80;;;14.10;99.90;;;;;;5026785;28;20494;-67
2022/05/30 06:00:06;;;;;;;2.60;0.68;;;14.10;99.90;;;;;;5020437;28;20367;-68
2022/05/30 06:02:33;;;;;;;2.47;0.77;;;14.10;99.90;;;;;;5023106;28;20026;-68
2022/05/30 06:05:01;;;;;;;3.63;0.90;;;14.10;99.90;;;;;;5022784;28;20116;-68
2022/05/30 06:07:28;;;;;;;6.95;1.02;;;14.10;99.90;;;;;;5014704;28;20033;-68
2022/05/30 06:09:55;;;;;;;4.70;1.13;;;14.00;99.90;;;;;;5022354;28;20478;-68
2022/05/30 06:12:23;;;;;;;5.28;1.10;;;14.00;99.90;;;;;;5024287;28;20032;-68
2022/05/30 06:14:50;;;;;;;2.15;0.82;;;14.00;99.90;;;;;;5019692;28;20366;-68
2022/05/30 06:17:17;;;;;;;7.53;2.40;;;14.00;99.90;;;;;;5013118;28;20437;-69
2022/05/30 06:19:47;;;;;;;7.80;1.60;;;14.00;99.90;;;;;;5018858;28;20064;-67
2022/05/30 06:22:14;;;;;;;2.97;0.75;;;14.00;99.90;;;;;;5021216;28;20040;-68
2022/05/30 06:24:41;;;;;;;4.80;0.90;;;13.90;99.90;;;;;;5020428;28;20021;-68
2022/05/30 06:27:10;;;;;;;3.45;0.70;;;13.90;99.90;;;;;;5023268;28;20025;-69
2022/05/30 06:29:38;;;;;;;4.35;0.98;;;13.90;99.90;;;;;;5024987;28;20025;-69
2022/05/30 06:32:06;;;;;;;8.50;1.67;;;13.90;99.90;;;;;;5020795;28;20018;-69
2022/05/30 06:34:33;;;;;;;4.68;1.17;;;13.90;99.90;;;;;;5017914;28;20033;-69
2022/05/30 06:37:00;;;;;;;3.70;0.98;;;13.90;99.90;;;;;;5015372;28;20900;-69
2022/05/30 06:39:28;;;;;;;5.53;1.13;;;13.90;99.90;;;;;;5016935;28;20034;-69
2022/05/30 06:41:55;;;;;;;2.60;1.05;;;13.90;99.90;;;;;;5018735;28;20052;-69
2022/05/30 06:44:23;;;;;;;2.95;1.40;;;13.80;99.90;;;;;;5012842;28;20398;-70
2022/05/30 06:46:51;;;;;;;4.40;1.35;;;13.80;99.90;;;;;;5021872;28;20541;-70
2022/05/30 06:49:18;;;;;;;5.30;1.00;;;13.80;99.90;;;;;;5018473;28;20072;-69
2022/05/30 06:51:45;;;;;;;2.15;0.75;;;13.90;99.90;;;;;;5015795;28;20025;-70
2022/05/30 06:54:13;;;;;;;3.80;0.80;;;13.80;99.90;;;;;;5026984;28;20497;-70
2022/05/30 06:58:11;;;;;;;1.73;0.55;;;13.80;99.90;;;;;;5028876;28;20032;-70
2022/05/30 06:59:32;;;;;;;5.47;1.20;;;13.80;99.90;;;;;;5026851;28;20036;-70
2022/05/30 07:02:05;;;;;;;4.75;1.15;;;13.80;99.90;;;;;;5016975;28;20037;-70
2022/05/30 07:04:34;;;;;;;7.60;1.85;;;13.60;99.90;;;;;;5020568;28;20029;-70
2022/05/30 07:07:07;;;;;;;7.97;1.40;;;12.70;99.90;;;;;;5022363;28;20147;-69
2022/05/30 07:09:35;;;;;;;6.53;1.58;;;11.80;99.90;;;;;;5016651;28;20083;-70
2022/05/30 07:12:03;;;;;;;3.97;0.65;;;11.30;99.90;;;;;;5023880;28;20119;-69
2022/05/30 07:14:31;;;;;;;1.30;0.50;;;11.10;99.90;;;;;;5024405;28;20470;-70
2022/05/30 07:17:01;;;;;;;1.55;0.40;;;10.80;99.90;;;;;;5025924;28;20039;-69
2022/05/30 07:19:30;;;;;;;2.17;0.60;;;10.60;99.90;;;;;;5030524;28;20482;-69
2022/05/30 07:21:59;;;;;;;4.32;0.45;;;10.50;99.90;;;;;;5014598;28;20034;-69
2022/05/30 07:24:26;;;;;;;1.48;0.40;;;10.40;99.90;;;;;;5022839;28;20113;-69
2022/05/30 07:26:53;;;;;;;2.47;0.70;;;10.50;99.90;;;;;;5027614;28;20026;-70
2022/05/30 07:29:26;;;;;;;5.00;0.50;;;10.50;99.90;;;;;;5016942;28;20084;-70
2022/05/30 07:32:01;;;;;;;1.73;0.60;;;10.50;99.90;;;;;;5019416;28;20116;-70
2022/05/30 07:34:29;;;;;;;2.58;0.43;;;10.50;99.90;;;;;;5028649;28;20402;-69
2022/05/30 07:36:57;;;;;;;3.10;0.60;;;10.50;99.90;;;;;;5017443;28;20084;-70
2022/05/30 07:39:25;;;;;;;2.67;0.50;;;10.50;99.90;;;;;;5021139;28;20105;-70
2022/05/30 07:41:52;;;;;;;1.15;0.50;;;10.60;99.90;;;;;;5034293;28;20036;-69
2022/05/30 07:44:19;;;;;;;6.55;0.73;;;10.60;99.90;;;;;;5034893;28;20026;-70
2022/05/30 07:46:47;;;;;;;3.10;0.90;;;10.60;99.90;;;;;;5030886;28;20035;-70
2022/05/30 07:49:14;;;;;;;1.27;0.60;;;10.70;99.90;;;;;;5032373;28;20508;-70
2022/05/30 07:51:44;;;;;;;2.05;0.60;;;10.70;99.90;;;;;;5031370;28;20034;-70
2022/05/30 07:54:11;;;;;;;3.33;0.90;;;10.60;99.90;;;;;;5024399;28;20026;-70
2022/05/30 07:56:38;;;;;;;7.82;0.88;;;10.70;99.90;;;;;;5026735;28;20034;-70
2022/05/30 07:59:06;;;;;;;7.47;2.00;;;10.60;99.90;;;;;;5034150;28;20055;-70
2022/05/30 08:01:34;;;;;;;2.67;0.60;;;10.60;99.90;;;;;;5035412;28;20101;-70
2022/05/30 08:04:02;;;;;;;1.85;0.60;;;10.70;99.90;;;;;;5022902;28;20018;-70
2022/05/30 08:06:31;;;;;;;1.67;0.52;;;10.80;99.90;;;;;;5021177;28;20025;-69
2022/05/30 08:08:58;;;;;;;3.83;0.60;;;10.90;99.90;;;;;;5018301;28;20017;-69
2022/05/30 08:11:25;;;;;;;1.35;0.47;;;11.00;99.90;;;;;;5032467;28;20158;-70
2022/05/30 08:13:53;;;;;;;1.95;0.60;;;11.00;99.90;;;;;;5021532;28;20038;-70
2022/05/30 08:16:24;;;;;;;2.95;0.77;;;11.00;99.90;;;;;;5021283;28;20607;-70
2022/05/30 08:18:51;;;;;;;3.72;0.80;;;11.00;99.90;;;;;;5024177;28;20038;-68
2022/05/30 08:21:19;;;;;;;2.20;0.63;;;10.90;99.90;;;;;;5018284;28;20046;-68
2022/05/30 08:23:46;;;;;;;1.38;0.47;;;10.90;99.90;;;;;;5028116;28;20040;-69
2022/05/30 08:26:13;;;;;;;4.55;0.70;;;10.90;99.90;;;;;;5026706;28;20489;-69
2022/05/30 08:28:41;;;;;;;1.35;0.55;;;10.90;99.90;;;;;;5022634;28;20155;-68
2022/05/30 08:31:09;;;;;;;1.20;0.60;;;10.90;99.90;;;;;;5030528;28;20029;-68
2022/05/30 08:33:36;;;;;;;1.25;0.50;;;11.00;99.90;;;;;;5022427;28;20044;-69
2022/05/30 08:36:10;;;;;;;1.33;0.50;;;11.10;99.90;;;;;;5020731;28;20438;-68
2022/05/30 08:38:37;;;;;;;1.35;0.50;;;11.20;99.90;;;;;;5025364;28;20549;-69
2022/05/30 08:44:04;;;;;;;1.20;0.50;;;11.10;99.90;;;;;;5014784;28;20170;-69
2022/05/30 08:46:37;;;;;;;2.30;0.50;;;11.10;99.90;;;;;;5019401;28;20493;-69
2022/05/30 08:49:13;;;;;;;0.88;0.40;;;11.10;99.90;;;;;;5020094;28;20025;-69
2022/05/30 08:52:02;;;;;;;1.60;0.55;;;11.10;99.90;;;;;;5028223;28;20049;-69
2022/05/30 08:55:00;;;;;;;1.45;0.73;;;11.10;99.90;;;;;;5027228;28;20051;-68
2022/05/30 08:57:46;;;;;;;2.55;0.40;;;11.10;99.90;;;;;;5016221;28;20084;-69
2022/05/30 09:00:25;;;;;;;0.65;0.30;;;11.10;99.90;;;;;;5032436;28;20030;-68
2022/05/30 09:03:15;;;;;;;2.97;0.43;;;11.20;99.90;;;;;;5016565;28;20067;-68
2022/05/30 09:06:06;;;;;;;4.05;0.80;;;11.20;99.90;;;;;;5032672;28;20025;-69
2022/05/30 09:08:46;;;;;;;0.75;0.35;;;11.30;99.90;;;;;;5032924;28;20021;-68
2022/05/30 09:11:31;;;;;;;2.70;0.40;;;11.30;99.90;;;;;;5022706;28;20035;-69
2022/05/30 09:14:03;;;;;;;0.50;0.30;;;11.30;99.90;;;;;;5030989;28;20028;-69
2022/05/30 09:16:30;;;;;;;1.08;0.47;;;11.30;99.90;;;;;;5028719;28;20029;-68
2022/05/30 09:19:00;;;;;;;2.15;0.40;;;11.30;99.90;;;;;;5031634;28;20029;-68
2022/05/30 09:21:30;;;;;;;1.98;0.30;;;11.20;99.90;;;;;;5030286;28;20047;-69
2022/05/30 09:23:58;;;;;;;1.13;0.30;;;11.20;99.90;;;;;;5032790;28;20033;-68
2022/05/30 09:26:33;;;;;;;0.77;0.40;;;11.30;99.90;;;;;;5023175;28;20033;-69
2022/05/30 09:29:06;;;;;;;1.35;0.50;;;11.30;99.90;;;;;;5027021;28;20383;-69
2022/05/30 09:31:48;;;;;;;0.82;0.40;;;11.30;99.90;;;;;;5023103;28;20021;-69
2022/05/30 09:34:46;;;;;;;0.98;0.45;;;11.20;99.90;;;;;;5013405;28;20099;-69
2022/05/30 09:37:39;;;;;;;1.75;0.60;;;11.30;99.90;;;;;;5022577;28;20048;-68
2022/05/30 09:40:08;;;;;;;2.05;0.40;;;11.30;99.90;;;;;;5019054;28;20037;-68
2022/05/30 09:42:37;;;;;;;2.25;0.50;;;11.30;99.90;;;;;;5019751;28;20025;-68
2022/05/30 09:45:14;;;;;;;0.60;0.30;;;11.40;99.90;;;;;;5029444;28;20031;-69
2022/05/30 09:48:10;;;;;;;2.65;0.30;;;11.40;99.90;;;;;;5027749;28;20386;-69
2022/05/30 09:50:49;;;;;;;2.55;0.40;;;11.30;99.90;;;;;;5015160;28;20025;-68
2022/05/30 09:53:38;;;;;;;1.45;0.57;;;11.20;99.90;;;;;;5020137;28;20130;-69
2022/05/30 09:56:05;;;;;;;0.77;0.40;;;11.00;99.90;;;;;;5020740;28;20049;-68
2022/05/30 09:58:43;;;;;;;2.25;0.70;;;10.90;99.90;;;;;;5029912;28;20056;-68
2022/05/30 10:01:10;;;;;;;1.85;0.30;;;10.90;99.90;;;;;;5020748;28;20052;-68
2022/05/30 10:03:41;;;;;;;1.42;0.35;;;10.90;99.90;;;;;;5013395;28;20025;-69
2022/05/30 10:06:27;;;;;;;3.65;0.40;;;10.90;99.90;;;;;;5017171;28;20021;-69
2022/05/30 10:09:23;;;;;;;0.55;0.20;;;11.10;99.90;;;;;;5026865;28;20026;-69
2022/05/30 10:11:56;;;;;;;0.63;0.40;;;11.20;99.90;;;;;;5020093;28;20130;-69
2022/05/30 10:14:27;;;;;;;0.90;0.20;;;11.40;99.90;;;;;;5015819;28;20027;-69
2022/05/30 10:16:59;;;;;;;1.40;0.25;;;11.60;99.90;;;;;;5030194;28;20021;-69
2022/05/30 10:19:30;;;;;;;0.30;0.20;;;11.70;99.90;;;;;;5024953;28;20033;-69
2022/05/30 10:28:56;;;;;;;2.65;0.20;;;11.80;99.90;;;;;;5026754;28;20080;-69
2022/05/30 10:31:33;;;;;;;1.85;0.60;;;11.60;99.90;;;;;;5018180;28;20030;-69
2022/05/30 10:34:19;;;;;;;0.35;0.22;;;11.50;99.90;;;;;;5026732;28;20120;-69
2022/05/30 10:37:27;;;;;;;1.75;0.45;;;11.40;99.90;;;;;;5014142;28;20041;-69
2022/05/30 10:40:00;;;;;;;0.40;0.20;;;11.30;99.90;;;;;;5024376;28;20029;-69
2022/05/30 10:42:37;;;;;;;0.98;0.30;;;11.30;99.90;;;;;;5011931;28;20022;-69
2022/05/30 10:45:26;;;;;;;1.05;0.30;;;11.30;99.90;;;;;;5020285;28;20075;-69
2022/05/30 10:47:56;;;;;;;1.83;0.30;;;11.30;99.90;;;;;;5012212;28;20064;-69
2022/05/30 10:50:23;;;;;;;1.90;0.32;;;11.30;99.90;;;;;;5017127;28;20030;-69
2022/05/30 10:53:03;;;;;;;1.70;0.40;;;11.20;99.90;;;;;;5029256;28;20117;-68
2022/05/30 10:55:39;;;;;;;1.15;0.40;;;11.20;99.90;;;;;;5016920;28;20056;-68
2022/05/30 10:58:31;;;;;;;1.00;0.40;;;11.30;99.90;;;;;;5019524;28;20038;-68
2022/05/30 11:01:09;;;;;;;3.45;0.40;;;11.20;99.90;;;;;;5027878;28;20406;-68
2022/05/30 11:04:01;;;;;;;1.48;0.50;;;11.20;99.90;;;;;;5021354;28;20386;-68
2022/05/30 11:06:34;;;;;;;0.80;0.28;;;11.20;99.90;;;;;;5014568;28;20390;-68
2022/05/30 11:09:04;;;;;;;1.67;0.30;;;11.20;99.90;;;;;;5025092;28;20036;-68
2022/05/30 11:11:37;;;;;;;1.98;0.30;;;11.10;99.90;;;;;;5027446;28;20493;-68
2022/05/30 11:14:32;;;;;;;0.60;0.30;;;11.10;99.90;;;;;;5032723;28;20017;-68
2022/05/30 11:17:22;;;;;;;1.60;0.45;;;11.10;99.90;;;;;;5024709;28;20394;-69
2022/05/30 11:20:11;;;;;;;0.40;0.20;;;11.10;99.90;;;;;;5014404;28;20044;-69
2022/05/30 11:22:50;;;;;;;0.85;0.20;;;11.10;99.90;;;;;;5024785;28;20018;-69
2022/05/30 11:25:46;;;;;;;0.98;0.47;;;11.00;99.90;;;;;;5027276;28;20026;-68
2022/05/30 11:28:29;;;;;;;0.68;0.28;;;11.10;99.90;;;;;;5016290;28;20462;-69
2022/05/30 11:31:28;;;;;;;2.55;0.30;;;11.00;99.90;;;;;;5025413;28;20029;-70
2022/05/30 11:34:24;;;;;;;0.50;0.10;;;11.00;99.90;;;;;;5018119;28;20095;-69
2022/05/30 11:37:13;;;;;;;0.50;0.30;;;11.00;99.90;;;;;;5028431;28;20398;-69
2022/05/30 11:40:06;;;;;;;1.48;0.30;;;11.00;99.90;;;;;;5028813;28;20029;-69
2022/05/30 11:43:15;;;;;;;0.73;0.30;;;11.00;99.90;;;;;;5023047;28;20026;-69
2022/05/30 11:46:09;;;;;;;1.30;0.60;;;11.00;99.90;;;;;;5023544;28;20042;-68
2022/05/30 11:48:45;;;;;;;0.70;0.20;;;11.00;99.90;;;;;;5023940;28;20454;-69
2022/05/30 11:51:39;;;;;;;0.73;0.20;;;11.00;99.90;;;;;;5026850;28;20561;-69
2022/05/30 11:54:34;;;;;;;0.93;0.22;;;11.10;99.90;;;;;;5024066;28;20033;-68
2022/05/30 11:57:10;;;;;;;0.22;0.10;;;11.30;99.90;;;;;;5022610;28;20482;-69
2022/05/30 12:00:13;;;;;;;1.95;0.40;;;11.50;99.90;;;;;;5024756;28;20497;-68
2022/05/30 12:02:58;;;;;;;0.10;0.05;;;11.70;99.90;;;;;;5016110;28;20036;-68
2022/05/30 12:06:02;;;;;;;1.65;0.10;;;11.80;99.90;;;;;;5025277;28;20022;-68
2022/05/30 12:08:39;;;;;;;0.40;0.10;;;11.80;99.90;;;;;;5016571;28;20038;-68
2022/05/30 12:11:24;;;;;;;1.73;0.22;;;11.90;99.90;;;;;;5020967;28;20032;-69
2022/05/30 12:14:07;;;;;;;0.20;0.10;;;11.90;99.90;;;;;;5024932;28;20020;-69
2022/05/30 12:17:12;;;;;;;1.75;0.20;;;12.00;99.90;;;;;;5019181;28;20025;-69
2022/05/30 12:25:36;;;;;;;1.95;0.17;;;12.00;99.90;;;;;;5023856;28;20091;-68
2022/05/30 12:28:27;;;;;;;1.73;0.20;;;12.00;99.90;;;;;;5023413;28;20394;-69
2022/05/30 12:31:05;;;;;;;1.13;0.10;;;12.00;99.90;;;;;;5027992;28;20111;-69
2022/05/30 12:33:32;;;;;;;0.30;0.08;;;12.00;99.90;;;;;;5024263;28;20032;-69
2022/05/30 12:36:13;;;;;;;2.13;0.10;;;12.00;99.90;;;;;;5025796;28;20051;-69
2022/05/30 12:38:50;;;;;;;1.10;0.22;;;12.00;99.90;;;;;;5021892;28;20120;-68
2022/05/30 12:41:31;;;;;;;1.08;0.10;;;12.00;99.90;;;;;;5026527;28;20489;-66
2022/05/30 12:43:59;;;;;;;2.08;0.15;;;12.00;99.90;;;;;;5028602;28;20120;-67
2022/05/30 12:46:30;;;;;;;0.20;0.10;;;12.00;99.90;;;;;;5023541;28;20359;-67
2022/05/30 12:49:05;;;;;;;1.00;0.20;;;12.00;99.90;;;;;;5025567;28;20211;-67
2022/05/30 12:51:37;;;;;;;1.00;0.20;;;12.00;99.90;;;;;;5028397;28;20029;-67
2022/05/30 12:54:04;;;;;;;1.52;0.17;;;12.00;99.90;;;;;;5029806;28;20025;-67
2022/05/30 12:56:40;;;;;;;1.25;0.45;;;11.90;99.90;;;;;;5023092;28;20040;-67
2022/05/30 12:59:17;;;;;;;0.57;0.13;;;11.90;99.90;;;;;;5013993;28;20030;-67
2022/05/30 13:01:44;;;;;;;2.88;0.22;;;11.90;99.90;;;;;;5020202;28;20398;-67
2022/05/30 13:04:29;;;;;;;0.30;0.10;;;11.90;99.90;;;;;;5022358;28;20017;-67
2022/05/30 13:07:01;;;;;;;0.38;0.10;;;12.00;99.90;;;;;;5024743;28;20022;-67
2022/05/30 13:09:44;;;;;;;0.63;0.20;;;12.00;99.90;;;;;;5027730;28;20104;-67
2022/05/30 13:12:22;;;;;;;0.73;0.30;;;12.10;99.90;;;;;;5027581;28;20108;-67
2022/05/30 13:15:02;;;;;;;1.42;0.13;;;12.10;99.90;;;;;;5021082;28;20120;-67
2022/05/30 13:17:39;;;;;;;1.65;0.10;;;12.10;99.90;;;;;;5020791;28;20034;-68
2022/05/30 13:20:15;;;;;;;0.90;0.20;;;12.10;99.90;;;;;;5019844;28;20029;-67
2022/05/30 13:22:46;;;;;;;0.60;0.20;;;12.10;99.90;;;;;;5023496;28;20017;-67
2022/05/30 13:25:20;;;;;;;1.00;0.03;;;12.20;99.90;;;;;;5030655;28;20052;-67
2022/05/30 13:27:48;;;;;;;;;;;12.10;99.90;;;;;;5024638;28;20041;-67
2022/05/30 13:30:20;;;;;;;2.47;0.20;;;12.10;99.90;;;;;;5026929;28;20332;-68
2022/05/30 13:32:50;;;;;;;0.35;0.10;;;12.20;99.90;;;;;;5029978;28;20021;-67
2022/05/30 13:35:19;;;;;;;0.40;0.10;;;12.20;99.90;;;;;;5032063;28;20028;-68
2022/05/30 13:37:51;;;;;;;0.90;0.10;;;12.20;99.90;;;;;;5018620;28;20454;-67
2022/05/30 13:40:24;;;;;;;1.77;0.10;;;12.20;99.90;;;;;;5031813;28;20025;-68
2022/05/30 13:42:58;;;;;;;1.17;0.15;;;12.20;99.90;;;;;;5020326;28;20025;-67